Time;durP1;ratioP1;P1;durP2;ratioP2;P2;SDS_P1;SDS_P2;PMS_P1;PMS_P2;Temp;Humidity;BMP_temperature;BMP_pressure;BME280_temperature;BME280_humidity;BME280_pressure;Samples;Min_cycle;Max_cycle;Signal;HPM_P1;HPM_P2
2023/12/28 00:01:27;;;;;;;5.72;3.05;;;;;;;;;;4915647;29;20063;-71
2023/12/28 00:03:53;;;;;;;4.97;2.97;;;;;;;;;;4916026;29;20047;-71
2023/12/28 00:06:19;;;;;;;8.48;3.55;;;;;;;;;;4913968;29;20039;-71
2023/12/28 00:08:45;;;;;;;6.47;3.58;;;;;;;;;;4928654;29;20126;-71
2023/12/28 00:11:11;;;;;;;5.47;3.05;;;;;;;;;;4914086;29;20086;-71
2023/12/28 00:13:37;;;;;;;7.72;3.47;;;;;;;;;;4915374;29;20051;-71
2023/12/28 00:16:04;;;;;;;4.88;2.90;;;;;;;;;;4912121;29;20239;-71
2023/12/28 00:18:30;;;;;;;5.07;3.50;;;;;;;;;;4914448;29;20061;-70
2023/12/28 00:20:56;;;;;;;3.53;3.20;;;;;;;;;;4896633;29;20048;-71
2023/12/28 00:23:22;;;;;;;4.10;3.42;;;;;;;;;;4914324;29;20067;-71
2023/12/28 00:25:48;;;;;;;4.10;2.85;;;;;;;;;;4915501;29;20039;-71
2023/12/28 00:28:14;;;;;;;10.48;3.85;;;;;;;;;;4913262;29;20055;-71
2023/12/28 00:30:40;;;;;;;5.60;3.72;;;;;;;;;;4915540;29;20752;-71
2023/12/28 00:33:06;;;;;;;7.90;3.35;;;;;;;;;;4920267;29;20497;-70
2023/12/28 00:35:32;;;;;;;10.43;4.28;;;10.10;99.90;;;;;;4923971;29;20139;-71
2023/12/28 00:37:58;;;;;;;6.88;3.78;;;;;;;;;;4930754;29;20814;-71
2023/12/28 00:40:24;;;;;;;6.00;3.85;;;;;;;;;;4909254;29;20060;-71
2023/12/28 00:42:50;;;;;;;10.95;4.88;;;;;;;;;;4932455;29;20047;-71
2023/12/28 00:45:16;;;;;;;8.65;3.67;;;;;;;;;;4921589;29;20047;-71
2023/12/28 00:47:43;;;;;;;5.93;3.40;;;;;;;;;;4913671;29;20115;-71
2023/12/28 00:50:11;;;;;;;5.68;3.53;;;;;;;;;;4913127;29;20051;-71
2023/12/28 00:52:37;;;;;;;10.75;3.83;;;;;;;;;;4894311;29;20047;-71
2023/12/28 00:55:04;;;;;;;12.07;4.00;;;;;;;;;;4928165;29;20047;-71
2023/12/28 00:57:30;;;;;;;7.88;3.60;;;;;;;;;;4908442;29;20050;-71
2023/12/28 00:59:56;;;;;;;8.98;4.18;;;;;;;;;;4911117;29;20047;-71
2023/12/28 01:02:21;;;;;;;8.15;3.65;;;9.90;99.90;;;;;;4929154;29;20052;-71
2023/12/28 01:04:47;;;;;;;9.82;3.75;;;;;;;;;;4912258;29;20054;-71
2023/12/28 01:07:13;;;;;;;15.10;4.05;;;;;;;;;;4911899;29;20411;-71
2023/12/28 01:09:39;;;;;;;7.18;3.08;;;;;;;;;;4913376;29;20047;-71
2023/12/28 01:12:06;;;;;;;8.00;3.45;;;;;;;;;;4929660;29;20784;-71
2023/12/28 01:14:31;;;;;;;5.05;2.60;;;9.80;99.90;;;;;;4928886;29;20044;-71
2023/12/28 01:16:58;;;;;;;12.98;3.83;;;;;;;;;;4911148;29;20091;-71
2023/12/28 01:19:24;;;;;;;7.35;3.50;;;;;;;;;;4907468;29;20052;-71
2023/12/28 01:21:50;;;;;;;13.70;3.42;;;;;;;;;;4907481;29;20058;-71
2023/12/28 01:24:16;;;;;;;9.52;3.42;;;;;;;;;;4927646;29;20044;-71
2023/12/28 01:26:42;;;;;;;15.43;4.28;;;;;;;;;;4929321;29;20059;-70
2023/12/28 01:29:08;;;;;;;6.50;3.25;;;;;;;;;;4928497;29;20052;-74
2023/12/28 01:31:35;;;;;;;12.00;3.03;;;;;;;;;;4911658;28;20094;-71
2023/12/28 01:34:01;;;;;;;8.43;2.92;;;;;;;;;;4931362;29;20082;-71
2023/12/28 01:36:29;;;;;;;14.10;3.83;;;;;;;;;;4925708;29;20047;-70
2023/12/28 01:38:55;;;;;;;7.30;3.85;;;;;;;;;;4925467;29;20051;-71
2023/12/28 01:41:21;;;;;;;14.13;3.45;;;;;;;;;;4924261;29;20271;-71
2023/12/28 01:43:47;;;;;;;9.98;4.20;;;;;;;;;;4900653;29;20546;-71
2023/12/28 01:46:17;;;;;;;15.18;3.45;;;;;;;;;;4920579;29;20047;-71
2023/12/28 01:48:45;;;;;;;11.38;3.70;;;;;;;;;;4910519;29;20125;-71
2023/12/28 01:51:15;;;;;;;9.95;3.25;;;;;;;;;;4928691;29;20130;-71
2023/12/28 01:53:41;;;;;;;6.25;3.70;;;;;;;;;;4925229;29;20043;-71
2023/12/28 01:56:08;;;;;;;7.55;3.13;;;;;;;;;;4946406;29;20121;-71
2023/12/28 01:58:35;;;;;;;12.77;4.03;;;;;;;;;;4928756;29;20043;-71
2023/12/28 02:01:01;;;;;;;14.65;4.00;;;;;;;;;;4921175;29;20059;-71
2023/12/28 02:03:28;;;;;;;11.27;3.08;;;;;;;;;;4906185;29;20060;-71
2023/12/28 02:05:55;;;;;;;10.10;3.95;;;;;;;;;;4943360;29;20209;-71
2023/12/28 02:08:21;;;;;;;7.40;3.05;;;;;;;;;;4930395;29;20047;-71
2023/12/28 02:10:47;;;;;;;6.30;3.33;;;;;;;;;;4922325;29;20058;-71
2023/12/28 02:13:13;;;;;;;13.88;3.17;;;;;;;;;;4912349;29;20051;-71
2023/12/28 02:15:39;;;;;;;6.25;3.20;;;;;;;;;;4939692;29;20597;-71
2023/12/28 02:18:19;;;;;;;10.45;3.20;;;;;;;;;;4925915;29;20058;-71
2023/12/28 02:20:46;;;;;;;8.20;3.40;;;;;;;;;;4943226;29;20054;-71
2023/12/28 02:23:12;;;;;;;13.07;3.35;;;;;;;;;;4940653;29;20147;-71
2023/12/28 02:25:38;;;;;;;11.55;3.90;;;;;;;;;;4927330;29;20168;-72
2023/12/28 02:28:04;;;;;;;7.10;3.08;;;;;;;;;;4914023;29;20051;-71
2023/12/28 02:30:33;;;;;;;11.18;3.72;;;;;;;;;;4941009;29;20064;-71
2023/12/28 02:33:08;;;;;;;9.65;3.08;;;;;;;;;;4926181;29;20544;-71
2023/12/28 02:35:44;;;;;;;10.55;3.40;;;;;;;;;;4944721;29;20186;-70
2023/12/28 02:38:11;;;;;;;8.82;2.97;;;;;;;;;;4914375;29;20115;-70
2023/12/28 02:40:41;;;;;;;11.75;3.03;;;;;;;;;;4928517;29;20119;-71
2023/12/28 02:43:07;;;;;;;13.10;3.88;;;;;;;;;;4941227;28;20055;-71
2023/12/28 02:45:34;;;;;;;11.00;3.20;;;;;;;;;;4923559;29;20413;-71
2023/12/28 02:48:00;;;;;;;10.65;2.67;;;;;;;;;;4950032;29;20865;-71
2023/12/28 02:50:26;;;;;;;13.93;3.22;;;;;;;;;;4916377;29;20038;-71
2023/12/28 02:52:52;;;;;;;8.27;3.28;;;;;;;;;;4938948;29;20058;-71
2023/12/28 02:55:18;;;;;;;10.48;4.00;;;;;;;;;;4935514;29;20071;-71
2023/12/28 02:57:45;;;;;;;10.77;3.55;;;;;;;;;;4934770;29;20755;-71
2023/12/28 03:00:11;;;;;;;14.63;4.07;;;;;;;;;;4933982;29;20047;-70
2023/12/28 03:02:38;;;;;;;8.40;3.58;;;;;;;;;;4929012;29;20050;-71
2023/12/28 03:05:05;;;;;;;5.05;3.00;;;;;;;;;;4925984;29;20677;-71
2023/12/28 03:07:31;;;;;;;8.77;2.90;;;;;;;;;;4929056;29;20109;-71
2023/12/28 03:09:57;;;;;;;7.60;2.75;;;;;;;;;;4935805;29;20043;-71
2023/12/28 03:12:23;;;;;;;10.15;3.17;;;;;;;;;;4933878;28;20051;-71
2023/12/28 03:14:50;;;;;;;11.52;2.80;;;;;;;;;;4931010;29;20137;-71
2023/12/28 03:17:16;;;;;;;12.02;3.28;;;;;;;;;;4928173;28;20054;-71
2023/12/28 03:19:42;;;;;;;11.48;2.95;;;;;;;;;;4936456;28;20070;-71
2023/12/28 03:22:08;;;;;;;13.15;3.33;;;;;;;;;;4932841;29;20089;-71
2023/12/28 03:24:37;;;;;;;9.32;2.78;;;;;;;;;;4935641;29;20778;-71
2023/12/28 03:27:03;;;;;;;10.93;2.90;;;;;;;;;;4932047;29;20129;-71
2023/12/28 03:29:29;;;;;;;10.57;3.10;;;;;;;;;;4939788;28;20059;-71
2023/12/28 03:31:55;;;;;;;7.50;3.03;;;;;;;;;;4938982;29;20086;-70
2023/12/28 03:34:22;;;;;;;8.05;2.72;;;;;;;;;;4933394;29;20090;-71
2023/12/28 03:36:48;;;;;;;7.25;2.33;;;;;;;;;;4925383;29;20061;-71
2023/12/28 03:39:14;;;;;;;8.02;2.75;;;;;;;;;;4932920;29;20407;-71
2023/12/28 03:41:40;;;;;;;13.43;4.40;;;;;;;;;;4929648;29;20051;-71
2023/12/28 03:44:06;;;;;;;8.68;2.97;;;;;;;;;;4932042;29;20051;-71
2023/12/28 03:46:32;;;;;;;11.90;3.55;;;;;;;;;;4924937;29;20508;-71
2023/12/28 03:48:58;;;;;;;6.03;2.22;;;;;;;;;;4928636;29;20139;-71
2023/12/28 03:51:24;;;;;;;10.32;3.05;;;;;;;;;;4921482;29;20145;-71
2023/12/28 03:53:50;;;;;;;12.68;2.80;;;;;;;;;;4933362;29;20070;-71
2023/12/28 03:56:23;;;;;;;11.32;2.90;;;;;;;;;;4932639;29;20348;-71
2023/12/28 03:58:50;;;;;;;9.82;2.30;;;;;;;;;;4926009;29;20058;-70
2023/12/28 04:01:17;;;;;;;7.60;2.33;;;;;;;;;;4928113;29;20135;-71
2023/12/28 04:03:43;;;;;;;9.65;2.75;;;;;;;;;;4937258;29;20138;-70
2023/12/28 04:06:09;;;;;;;10.90;3.03;;;;;;;;;;4932577;29;20061;-71
2023/12/28 04:08:35;;;;;;;13.40;3.50;;;;;;;;;;4944653;28;20040;-71
2023/12/28 04:11:01;;;;;;;9.50;2.88;;;;;;;;;;4929133;29;20047;-71
2023/12/28 04:13:27;;;;;;;14.27;3.22;;;;;;;;;;4930878;29;20822;-71
2023/12/28 04:15:53;;;;;;;12.45;3.08;;;;;;;;;;4931015;29;20051;-71
2023/12/28 04:18:19;;;;;;;10.18;2.13;;;10.80;99.90;;;;;;4915340;29;20043;-70
2023/12/28 04:20:45;;;;;;;8.07;2.75;;;;;;;;;;4930024;29;20061;-70
2023/12/28 04:23:11;;;;;;;10.63;2.42;;;;;;;;;;4921566;29;20495;-70
2023/12/28 04:25:37;;;;;;;9.80;3.22;;;;;;;;;;4931723;29;20607;-70
2023/12/28 04:28:03;;;;;;;14.93;3.00;;;;;;;;;;4930400;28;20039;-69
2023/12/28 04:30:29;;;;;;;9.30;3.10;;;;;;;;;;4934102;29;20150;-70
2023/12/28 04:32:55;;;;;;;15.93;3.70;;;;;;;;;;4928813;29;20146;-71
2023/12/28 04:35:21;;;;;;;11.23;3.40;;;;;;;;;;4946790;29;20067;-70
2023/12/28 04:37:47;;;;;;;16.45;3.03;;;;;;;;;;4945780;29;20859;-71
2023/12/28 04:40:14;;;;;;;7.07;2.70;;;;;;;;;;4928400;29;20822;-71
2023/12/28 04:42:40;;;;;;;15.52;2.95;;;;;;;;;;4930651;29;20247;-71
2023/12/28 04:45:07;;;;;;;10.45;2.83;;;;;;;;;;4933888;29;20050;-70
2023/12/28 04:47:33;;;;;;;14.20;3.53;;;;;;;;;;4930727;29;20831;-71
2023/12/28 04:49:59;;;;;;;11.93;3.15;;;;;;;;;;4949865;28;20039;-71
2023/12/28 04:52:24;;;;;;;10.32;3.55;;;11.00;99.90;;;;;;4942572;29;20097;-71
2023/12/28 04:54:51;;;;;;;12.38;3.00;;;;;;;;;;4923048;29;20499;-71
2023/12/28 04:57:18;;;;;;;12.52;2.90;;;;;;;;;;4917772;29;20052;-70
2023/12/28 04:59:45;;;;;;;12.48;3.58;;;;;;;;;;4931604;29;20419;-70
2023/12/28 05:02:11;;;;;;;6.38;2.47;;;;;;;;;;4931494;29;20082;-71
2023/12/28 05:04:40;;;;;;;7.53;2.60;;;;;;;;;;4932830;28;20039;-71
2023/12/28 05:07:06;;;;;;;11.63;3.20;;;;;;;;;;4928584;29;20694;-70
2023/12/28 05:09:32;;;;;;;13.90;2.58;;;;;;;;;;4932450;28;20241;-70
2023/12/28 05:11:58;;;;;;;14.48;3.20;;;;;;;;;;4916640;29;20047;-70
2023/12/28 05:14:24;;;;;;;10.32;2.90;;;;;;;;;;4949100;28;20047;-69
2023/12/28 05:16:50;;;;;;;10.48;2.55;;;;;;;;;;4924560;29;20043;-70
2023/12/28 05:19:16;;;;;;;15.90;3.05;;;;;;;;;;4928415;29;20079;-71
2023/12/28 05:21:42;;;;;;;15.68;3.50;;;;;;;;;;4928865;28;20130;-70
2023/12/28 05:24:08;;;;;;;11.80;3.70;;;;;;;;;;4933840;29;20130;-70
2023/12/28 05:26:35;;;;;;;12.52;2.88;;;;;;;;;;4929473;29;20055;-70
2023/12/28 05:29:01;;;;;;;10.30;3.05;;;;;;;;;;4914868;28;20134;-71
2023/12/28 05:31:27;;;;;;;12.40;3.15;;;;;;;;;;4927742;29;20120;-71
2023/12/28 05:33:53;;;;;;;11.13;3.10;;;;;;;;;;4926886;29;20160;-71
2023/12/28 05:36:19;;;;;;;7.57;2.60;;;;;;;;;;4912097;29;20522;-70
2023/12/28 05:38:45;;;;;;;10.73;3.05;;;;;;;;;;4923382;29;20047;-70
2023/12/28 05:41:11;;;;;;;14.73;2.40;;;;;;;;;;4936283;29;20054;-70
2023/12/28 05:43:38;;;;;;;11.52;2.83;;;;;;;;;;4923205;29;20050;-71
2023/12/28 05:46:04;;;;;;;11.20;2.75;;;;;;;;;;4925188;29;20090;-70
2023/12/28 05:48:30;;;;;;;13.98;3.95;;;;;;;;;;4918568;29;20116;-70
2023/12/28 05:51:00;;;;;;;12.60;2.97;;;;;;;;;;4926068;29;20047;-70
2023/12/28 05:53:27;;;;;;;13.30;3.38;;;;;;;;;;4924204;29;20122;-71
2023/12/28 05:55:53;;;;;;;9.73;2.70;;;;;;;;;;4925810;29;20414;-70
2023/12/28 05:58:19;;;;;;;15.77;2.90;;;;;;;;;;4944094;29;20134;-71
2023/12/28 06:00:48;;;;;;;11.68;2.70;;;;;;;;;;4926311;29;20063;-70
2023/12/28 06:03:14;;;;;;;14.27;2.70;;;;;;;;;;4925352;29;20054;-70
2023/12/28 06:05:41;;;;;;;14.85;3.15;;;;;;;;;;4918513;29;20043;-70
2023/12/28 06:08:07;;;;;;;15.98;4.00;;;;;;;;;;4920459;29;20182;-70
2023/12/28 06:10:32;;;;;;;11.70;2.70;;;10.60;99.90;;;;;;4925951;29;20058;-70
2023/12/28 06:12:58;;;;;;;14.27;3.38;;;;;;;;;;4927279;29;20442;-70
2023/12/28 06:15:24;;;;;;;18.70;3.88;;;;;;;;;;4926610;29;20049;-70
2023/12/28 06:17:50;;;;;;;14.95;3.20;;;;;;;;;;4927638;28;20043;-70
2023/12/28 06:20:16;;;;;;;14.82;3.05;;;;;;;;;;4930859;29;20058;-70
2023/12/28 06:22:42;;;;;;;18.52;2.88;;;;;;;;;;4931226;29;20977;-70
2023/12/28 06:25:09;;;;;;;10.18;2.53;;;;;;;;;;4930855;29;20050;-70
2023/12/28 06:27:35;;;;;;;15.32;2.97;;;;;;;;;;4930981;29;20043;-70
2023/12/28 06:30:01;;;;;;;13.35;3.65;;;;;;;;;;4929997;29;20082;-71
2023/12/28 06:32:27;;;;;;;16.65;3.05;;;;;;;;;;4947329;29;20467;-70
2023/12/28 06:34:53;;;;;;;10.90;2.58;;;;;;;;;;4944569;29;20050;-71
2023/12/28 06:37:19;;;;;;;20.48;3.38;;;;;;;;;;4947043;29;20054;-71
2023/12/28 06:39:45;;;;;;;15.13;3.35;;;;;;;;;;4938568;28;20495;-71
2023/12/28 06:42:11;;;;;;;16.17;3.72;;;;;;;;;;4937364;29;20079;-71
2023/12/28 06:44:37;;;;;;;15.30;3.00;;;;;;;;;;4942495;28;20038;-71
2023/12/28 06:47:03;;;;;;;15.77;3.20;;;;;;;;;;4942416;29;20081;-71
2023/12/28 06:49:29;;;;;;;12.35;3.80;;;;;;;;;;4939626;29;20570;-71
2023/12/28 06:51:56;;;;;;;12.60;2.65;;;;;;;;;;4942287;29;20050;-72
2023/12/28 06:54:22;;;;;;;16.55;3.00;;;;;;;;;;4939261;29;20106;-71
2023/12/28 06:56:48;;;;;;;9.00;2.97;;;;;;;;;;4940852;29;20051;-70
2023/12/28 06:59:15;;;;;;;12.75;3.97;;;;;;;;;;4939909;29;20047;-71
2023/12/28 07:01:41;;;;;;;11.32;3.30;;;;;;;;;;4939232;29;20058;-70
2023/12/28 07:04:07;;;;;;;15.18;3.47;;;;;;;;;;4936794;29;20043;-70
2023/12/28 07:06:33;;;;;;;15.60;2.75;;;;;;;;;;4936851;28;20208;-71
2023/12/28 07:09:00;;;;;;;14.80;3.60;;;;;;;;;;4941320;29;20046;-71
2023/12/28 07:11:28;;;;;;;13.50;3.30;;;;;;;;;;4932265;29;20051;-71
2023/12/28 07:13:54;;;;;;;18.20;5.15;;;;;;;;;;4934306;29;20057;-72
2023/12/28 07:16:20;;;;;;;14.85;2.97;;;;;;;;;;4935353;29;20073;-72
2023/12/28 07:18:46;;;;;;;16.33;3.45;;;;;;;;;;4938790;29;20051;-71
2023/12/28 07:21:12;;;;;;;13.50;2.60;;;;;;;;;;4937623;29;20043;-71
2023/12/28 07:23:38;;;;;;;13.98;3.05;;;;;;;;;;4936176;29;20054;-71
2023/12/28 07:26:04;;;;;;;13.93;3.15;;;;;;;;;;4937595;29;20090;-71
2023/12/28 07:28:31;;;;;;;15.15;4.18;;;;;;;;;;4934143;29;20051;-74
2023/12/28 07:30:57;;;;;;;16.55;3.00;;;;;;;;;;4935776;29;20183;-70
2023/12/28 07:33:23;;;;;;;11.18;3.00;;;;;;;;;;4939364;29;20047;-70
2023/12/28 07:35:49;;;;;;;15.90;3.30;;;;;;;;;;4939751;28;20130;-70
2023/12/28 07:38:15;;;;;;;14.10;3.72;;;;;;;;;;4941451;29;20049;-70
2023/12/28 07:40:41;;;;;;;18.23;3.53;;;;;;;;;;4940200;29;20047;-71
2023/12/28 07:43:08;;;;;;;18.38;4.60;;;;;;;;;;4942850;29;20050;-70
2023/12/28 07:45:35;;;;;;;17.13;3.35;;;;;;;;;;4939526;28;20063;-69
2023/12/28 07:48:01;;;;;;;16.10;3.97;;;;;;;;;;4941091;29;20224;-70
2023/12/28 07:50:27;;;;;;;19.10;3.40;;;;;;;;;;4940715;29;20051;-71
2023/12/28 07:52:53;;;;;;;15.35;3.17;;;;;;;;;;4950036;28;20050;-71
2023/12/28 07:55:19;;;;;;;21.85;3.65;;;;;;;;;;4942449;29;20058;-71
2023/12/28 07:57:45;;;;;;;17.83;3.55;;;;;;;;;;4936752;28;20047;-70
2023/12/28 08:00:11;;;;;;;19.35;3.95;;;;;;;;;;4932395;29;20043;-71
2023/12/28 08:02:37;;;;;;;17.55;3.58;;;;;;;;;;4923731;29;20079;-71
2023/12/28 08:05:04;;;;;;;16.35;4.28;;;;;;;;;;4939014;29;20051;-71
2023/12/28 08:07:30;;;;;;;23.17;3.95;;;;;;;;;;4923625;29;20039;-71
2023/12/28 08:09:56;;;;;;;21.30;4.03;;;;;;;;;;4940957;29;20047;-71
2023/12/28 08:12:27;;;;;;;21.00;4.13;;;;;;;;;;4922158;28;20130;-71
2023/12/28 08:14:53;;;;;;;21.40;4.90;;;;;;;;;;4922584;29;20981;-70
2023/12/28 08:17:19;;;;;;;13.30;3.33;;;;;;;;;;4944391;28;20047;-70
2023/12/28 08:19:45;;;;;;;19.60;4.28;;;;;;;;;;4940327;29;20534;-69
2023/12/28 08:22:11;;;;;;;19.13;3.92;;;;;;;;;;4938206;29;20499;-72
2023/12/28 08:24:37;;;;;;;23.65;4.18;;;;;;;;;;4935311;28;20043;-70
2023/12/28 08:27:04;;;;;;;23.75;4.38;;;;;;;;;;4933599;28;20101;-70
2023/12/28 08:29:30;;;;;;;19.05;4.03;;;;;;;;;;4935457;29;20380;-71
2023/12/28 08:31:56;;;;;;;18.42;3.92;;;;;;;;;;4918211;29;20498;-71
2023/12/28 08:34:22;;;;;;;22.77;3.88;;;;;;;;;;4932838;29;20094;-73
2023/12/28 08:36:50;;;;;;;19.55;4.25;;;;;;;;;;4933383;29;20102;-72
2023/12/28 08:39:27;;;;;;;22.58;4.13;;;;;;;;;;4927805;29;20422;-70
2023/12/28 08:41:53;;;;;;;18.23;3.85;;;;;;;;;;4936696;28;20051;-73
2023/12/28 08:44:19;;;;;;;26.13;6.10;;;;;;;;;;4918516;29;20852;-72
2023/12/28 08:46:45;;;;;;;22.80;4.18;;;;;;;;;;4918193;28;20039;-72
2023/12/28 08:49:15;;;;;;;20.92;3.63;;;;;;;;;;4918320;29;20743;-74
2023/12/28 08:51:42;;;;;;;22.83;4.32;;;;;;;;;;4922317;29;20039;-74
2023/12/28 08:54:11;;;;;;;21.05;4.57;;;;;;;;;;4919551;29;20567;-73
2023/12/28 08:56:38;;;;;;;25.67;4.00;;;;;;;;;;4936560;29;20535;-73
2023/12/28 08:59:04;;;;;;;24.52;4.38;;;;;;;;;;4939554;29;20047;-74
2023/12/28 09:01:30;;;;;;;23.08;4.18;;;;;;;;;;4939788;29;20054;-74
2023/12/28 09:03:56;;;;;;;21.85;4.45;;;;;;;;;;4921069;29;20122;-72
2023/12/28 09:06:22;;;;;;;22.42;4.90;;;;;;;;;;4932306;29;20043;-72
2023/12/28 09:08:57;;;;;;;23.55;5.28;;;;;;;;;;4944095;28;20085;-73
2023/12/28 09:11:24;;;;;;;23.92;4.47;;;;;;;;;;4934700;29;20039;-73
2023/12/28 09:13:50;;;;;;;24.95;4.28;;;;;;;;;;4923105;28;20746;-72
2023/12/28 09:16:20;;;;;;;25.45;4.47;;;;;;;;;;4938240;29;20050;-75
2023/12/28 09:19:04;;;;;;;13.88;3.58;;;;;;;;;;4938303;29;20038;-73
2023/12/28 09:21:31;;;;;;;22.60;3.92;;;;;;;;;;4935192;29;20522;-74
2023/12/28 09:24:03;;;;;;;25.13;3.80;;;;;;;;;;4920359;29;20134;-73
2023/12/28 09:26:31;;;;;;;20.20;4.03;;;;;;;;;;4938189;29;20050;-74
2023/12/28 09:28:57;;;;;;;18.90;4.35;;;;;;;;;;4918269;29;20567;-74
2023/12/28 09:31:29;;;;;;;20.58;4.93;;;;;;;;;;4933085;29;20070;-73
2023/12/28 09:33:55;;;;;;;13.55;3.65;;;;;;;;;;4917887;29;20135;-74
2023/12/28 09:36:21;;;;;;;20.58;4.65;;;;;;;;;;4936795;29;20047;-73
2023/12/28 09:38:47;;;;;;;14.10;4.45;;;;;;;;;;4936139;28;20039;-72
2023/12/28 09:41:14;;;;;;;15.85;4.28;;;;;;;;;;4937780;28;20054;-73
2023/12/28 09:43:59;;;;;;;23.25;4.22;;;;;;;;;;4933018;29;20043;-72
2023/12/28 09:46:28;;;;;;;18.20;3.53;;;;;;;;;;4909227;29;20158;-72
2023/12/28 09:48:57;;;;;;;23.90;4.03;;;;;;;;;;4932425;29;20043;-72
2023/12/28 09:51:23;;;;;;;18.30;4.03;;;;;;;;;;4931842;29;20047;-72
2023/12/28 09:53:49;;;;;;;27.17;5.38;;;;;;;;;;4932633;28;20050;-73
2023/12/28 09:56:18;;;;;;;13.80;3.22;;;;;;;;;;4918210;29;20038;-74
2023/12/28 09:58:45;;;;;;;17.48;4.40;;;;;;;;;;4919789;29;20142;-72
2023/12/28 10:01:14;;;;;;;23.00;3.38;;;;;;;;;;4934834;29;20606;-72
2023/12/28 10:03:40;;;;;;;20.15;4.13;;;;;;;;;;4930170;29;20126;-72
2023/12/28 10:06:06;;;;;;;22.33;3.85;;;;;;;;;;4919690;29;20046;-73
2023/12/28 10:08:32;;;;;;;17.60;4.63;;;;;;;;;;4915239;29;20063;-72
2023/12/28 10:11:01;;;;;;;15.70;4.15;;;;;;;;;;4918766;29;20046;-73
2023/12/28 10:13:33;;;;;;;16.48;3.90;;;;;;;;;;4934917;29;20151;-73
2023/12/28 10:16:03;;;;;;;25.85;3.85;;;;;;;;;;4918512;29;20053;-73
2023/12/28 10:18:30;;;;;;;14.55;4.10;;;;;;;;;;4936824;29;20136;-72
2023/12/28 10:20:57;;;;;;;20.83;3.95;;;;;;;;;;4915951;29;20353;-73
2023/12/28 10:23:24;;;;;;;23.27;4.13;;;;;;;;;;4921003;29;20035;-72
2023/12/28 10:25:53;;;;;;;17.58;3.90;;;;;;;;;;4914685;29;20150;-72
2023/12/28 10:28:19;;;;;;;19.48;3.80;;;;;;;;;;4927715;28;20079;-71
2023/12/28 10:30:46;;;;;;;23.02;5.03;;;;;;;;;;4929969;29;20139;-71
2023/12/28 10:33:19;;;;;;;18.85;3.47;;;;;;;;;;4938436;29;20059;-72
2023/12/28 10:35:50;;;;;;;22.30;3.97;;;;;;;;;;4914519;29;20147;-71
2023/12/28 10:38:17;;;;;;;20.20;4.43;;;;;;;;;;4936778;29;20478;-70
2023/12/28 10:40:44;;;;;;;25.52;4.53;;;;;;;;;;4931945;29;20061;-70
2023/12/28 10:43:12;;;;;;;18.65;3.13;;;;;;;;;;4917770;29;20046;-71
2023/12/28 10:45:39;;;;;;;22.30;4.57;;;;;;;;;;4936105;28;20146;-72
2023/12/28 10:48:10;;;;;;;18.35;3.75;;;;;;;;;;4932819;29;20542;-72
2023/12/28 10:50:45;;;;;;;19.30;4.80;;;;;;;;;;4935413;29;20106;-72
2023/12/28 10:53:31;;;;;;;20.60;2.97;;;;;;;;;;4934668;29;20247;-71
2023/12/28 10:56:30;;;;;;;22.20;4.93;;;;;;;;;;4927572;29;20043;-72
2023/12/28 10:58:59;;;;;;;16.98;4.20;;;;;;;;;;4902400;29;20043;-72
2023/12/28 11:01:27;;;;;;;17.10;3.92;;;;;;;;;;4916494;29;20044;-73
2023/12/28 11:03:59;;;;;;;24.77;3.88;;;;;;;;;;4918285;29;20039;-72
2023/12/28 11:06:26;;;;;;;24.35;4.65;;;;;;;;;;4935450;29;20126;-72
2023/12/28 11:08:54;;;;;;;20.42;4.80;;;;;;;;;;4934983;29;20078;-72
2023/12/28 11:11:20;;;;;;;22.83;4.50;;;;;;;;;;4934196;29;20444;-72
2023/12/28 11:13:47;;;;;;;16.38;4.03;;;;;;;;;;4923902;29;20040;-74
2023/12/28 11:16:13;;;;;;;22.52;4.82;;;;;;;;;;4939529;29;20058;-72
2023/12/28 11:18:39;;;;;;;17.70;4.22;;;;;;;;;;4921172;29;20082;-71
2023/12/28 11:21:06;;;;;;;18.58;4.05;;;;;;;;;;4934511;28;20162;-71
2023/12/28 11:23:32;;;;;;;14.05;4.20;;;;;;;;;;4933494;29;20518;-74
2023/12/28 11:26:15;;;;;;;20.90;5.32;;;;;;;;;;4939038;29;20047;-75
2023/12/28 11:28:41;;;;;;;18.80;3.63;;;;;;;;;;4937898;29;20047;-72
2023/12/28 11:31:11;;;;;;;23.50;3.95;;;;;;;;;;4933479;28;20051;-72
2023/12/28 11:33:44;;;;;;;19.48;3.95;;;;;;;;;;4937754;29;20057;-73
2023/12/28 11:36:10;;;;;;;13.57;3.22;;;;;;;;;;4930829;29;20497;-72
2023/12/28 11:38:37;;;;;;;20.80;3.42;;;;;;;;;;4938049;29;20056;-72
2023/12/28 11:41:04;;;;;;;21.25;6.05;;;;;;;;;;4934286;29;20050;-71
2023/12/28 11:43:35;;;;;;;20.52;4.03;;;;;;;;;;4936871;29;20051;-71
2023/12/28 11:46:05;;;;;;;17.67;4.25;;;;;;;;;;4937107;29;20523;-72
2023/12/28 11:48:31;;;;;;;23.75;4.10;;;;;;;;;;4941845;28;20197;-71
2023/12/28 11:51:00;;;;;;;15.73;3.53;;;;;;;;;;4940698;28;20094;-71
2023/12/28 11:53:27;;;;;;;24.88;5.13;;;;;;;;;;4938773;29;20075;-71
2023/12/28 11:55:53;;;;;;;24.27;4.25;;;;;;;;;;4940711;29;20047;-72
2023/12/28 11:58:19;;;;;;;17.23;3.75;;;;;;;;;;4943246;28;20074;-71
2023/12/28 12:00:46;;;;;;;23.58;4.35;;;;;;;;;;4939815;29;20096;-73
2023/12/28 12:03:12;;;;;;;18.95;4.18;;;;;;;;;;4942673;29;20106;-72
2023/12/28 12:05:38;;;;;;;20.55;3.80;;;;;;;;;;4936623;28;20050;-72
2023/12/28 12:08:06;;;;;;;15.32;4.07;;;;;;;;;;4941537;29;20835;-72
2023/12/28 12:10:32;;;;;;;24.02;4.65;;;;;;;;;;4941780;28;20821;-71
2023/12/28 12:12:58;;;;;;;21.25;4.63;;;;;;;;;;4938963;29;20055;-71
2023/12/28 12:15:28;;;;;;;25.08;5.47;;;;;;;;;;4935225;29;20403;-72
2023/12/28 12:17:55;;;;;;;19.85;3.85;;;;;;;;;;4933482;28;20047;-71
2023/12/28 12:20:21;;;;;;;19.23;4.20;;;;;;;;;;4934732;29;20043;-71
2023/12/28 12:22:47;;;;;;;20.02;4.57;;;;;;;;;;4934448;29;20515;-72
2023/12/28 12:25:14;;;;;;;18.67;4.30;;;;;;;;;;4935194;29;20047;-70
2023/12/28 12:27:40;;;;;;;18.75;3.90;;;;;;;;;;4921142;29;20035;-72
2023/12/28 12:30:07;;;;;;;18.25;3.65;;;;;;;;;;4918824;28;20063;-70
2023/12/28 12:32:37;;;;;;;20.88;4.28;;;;;;;;;;4921009;29;20051;-70
2023/12/28 12:35:03;;;;;;;21.30;3.55;;;;;;;;;;4920512;28;20055;-70
2023/12/28 12:37:29;;;;;;;18.17;4.40;;;;;;;;;;4937520;28;20710;-71
2023/12/28 12:39:55;;;;;;;25.83;4.80;;;;;;;;;;4923986;29;20051;-72
2023/12/28 12:42:22;;;;;;;25.50;4.47;;;;;;;;;;4921943;29;20084;-71
2023/12/28 12:44:48;;;;;;;27.25;5.45;;;;;;;;;;4938145;29;20471;-74
2023/12/28 12:47:14;;;;;;;22.70;3.72;;;;;;;;;;4934858;29;20910;-71
2023/12/28 12:49:43;;;;;;;30.73;5.45;;;;;;;;;;4935374;29;20055;-71
2023/12/28 12:52:09;;;;;;;23.95;4.82;;;;;;;;;;4938601;28;20050;-71
2023/12/28 12:54:35;;;;;;;18.30;3.97;;;;;;;;;;4920651;29;20048;-72
2023/12/28 12:57:06;;;;;;;24.42;4.38;;;;;;;;;;4917587;29;20089;-72
2023/12/28 12:59:33;;;;;;;24.63;4.07;;;;;;;;;;4934515;29;20165;-71
2023/12/28 13:02:00;;;;;;;20.33;6.15;;;;;;;;;;4932486;29;20547;-72
2023/12/28 13:04:27;;;;;;;24.40;5.43;;;;;;;;;;4935324;29;20040;-72
2023/12/28 13:07:07;;;;;;;18.42;3.80;;;;;;;;;;4915620;28;20058;-72
2023/12/28 13:09:33;;;;;;;27.02;4.47;;;;;;;;;;4934286;29;20043;-72
2023/12/28 13:12:03;;;;;;;25.00;4.25;;;;;;;;;;4934485;29;20791;-72
2023/12/28 13:14:29;;;;;;;27.75;4.55;;;;;;;;;;4921243;29;20637;-72
2023/12/28 13:16:56;;;;;;;19.27;4.93;;;;;;;;;;4938270;29;20035;-72
2023/12/28 13:19:25;;;;;;;19.05;4.28;;;;;;;;;;4924803;29;20154;-72
2023/12/28 13:21:51;;;;;;;15.95;4.22;;;;;;;;;;4933901;29;20534;-71
2023/12/28 13:24:17;;;;;;;23.05;4.65;;;;;;;;;;4939040;29;20043;-71
2023/12/28 13:26:43;;;;;;;17.30;4.60;;;;;;;;;;4938078;29;20127;-71
2023/12/28 13:29:09;;;;;;;27.13;4.55;;;;;;;;;;4933316;28;20071;-71
2023/12/28 13:31:35;;;;;;;20.38;5.22;;;;;;;;;;4938749;29;20102;-71
2023/12/28 13:34:01;;;;;;;20.25;4.38;;;;;;;;;;4933489;28;20047;-71
2023/12/28 13:36:28;;;;;;;23.63;3.80;;;;;;;;;;4931681;29;20039;-72
2023/12/28 13:38:59;;;;;;;21.75;5.40;;;;;;;;;;4934507;29;20057;-71
2023/12/28 13:41:26;;;;;;;14.93;3.60;;;;;;;;;;4942024;28;20035;-72
2023/12/28 13:44:01;;;;;;;23.23;4.65;;;;;;;;;;4929601;29;20094;-71
2023/12/28 13:46:28;;;;;;;21.25;4.72;;;;;;;;;;4921405;29;20054;-72
2023/12/28 13:48:54;;;;;;;17.05;3.72;;;;;;;;;;4922355;29;20035;-73
2023/12/28 13:51:20;;;;;;;19.63;3.63;;;;;;;;;;4937609;29;20050;-73
2023/12/28 13:53:47;;;;;;;19.10;4.60;;;;;;;;;;4936196;28;20047;-75
2023/12/28 13:56:28;;;;;;;16.38;3.90;;;;;;;;;;4918575;29;20062;-75
2023/12/28 13:59:06;;;;;;;18.95;3.33;;;;;;;;;;4911263;29;20051;-73
2023/12/28 14:01:33;;;;;;;18.30;4.45;;;;;;;;;;4900516;29;20062;-72
2023/12/28 14:03:59;;;;;;;20.13;4.00;;;;;;;;;;4900909;29;20091;-71
2023/12/28 14:06:25;;;;;;;18.35;3.53;;;;;;;;;;4891439;29;20087;-72
2023/12/28 14:08:51;;;;;;;16.08;3.83;;;;;;;;;;4916409;29;20808;-71
2023/12/28 14:11:17;;;;;;;22.92;4.90;;;;;;;;;;4895382;29;20775;-71
2023/12/28 14:13:50;;;;;;;19.38;3.97;;;;;;;;;;4895942;29;20118;-71
2023/12/28 14:16:23;;;;;;;23.42;3.25;;;;;;;;;;4893383;29;20059;-72
2023/12/28 14:18:53;;;;;;;20.20;4.82;;;;;;;;;;4899023;29;20052;-73
2023/12/28 14:21:19;;;;;;;21.13;4.10;;;;;;;;;;4894625;29;20640;-73
2023/12/28 14:23:45;;;;;;;21.65;4.85;;;;;;;;;;4886481;29;20091;-69
2023/12/28 14:26:34;;;;;;;22.33;4.38;;;;;;;;;;4896551;29;20039;-71
2023/12/28 14:29:28;;;;;;;20.85;4.53;;;;;;;;;;4915479;29;20055;-71
2023/12/28 14:32:37;;;;;;;24.10;4.43;;;;;;;;;;4895235;29;20055;-74